»·PEaware :: N6065L KSNA-KHND

N6065L :: KSNA-KHND

FLIGHT INFORMATION

Flight Status: Arrived
Operator: Privately registered:
United States
More flights under this callsign
Pilot: Kyle A. (14988)
Aircraft: CESSNA T210 TURBO CENTURION
(T210)
More flights by this aircraft type
Origin: KSNA John Wayne-Orange Co
United States
Destination: KHND Henderson
United States
More flights between these airports :: More routes between these airports
Route: +ANAHM9 HEC V21 BLD
File this flight plan on PilotEdge
Remarks:
Altitude:
(Current/Filed)
11,000ft
Speed:
(Current/Filed)
160kts
Departed: 16-Feb-18 05:40 PM
Arrived: 16-Feb-18 07:08 PM
Distance/Time
Traveled:
192nm/1:28
Distance/Time
To Go:
Arrived

Flight Plot

Page will automatically refresh every two minutes.

Flight plan parsing failed; only flown route is shown


Map Options




Map Legend


Flown Route
Filed Route
Departure Airport
Arrival Airport
Navaid (VOR, NDB)
Fix

Horizontal Profiles

Position Reports

Time Latitude Longitude Heading Altitude Ground
Speed
16-Feb-18 17:18 33.672352 -117.873053 30 49ft 0kts
16-Feb-18 17:19 33.672352 -117.873053 30 49ft 0kts
16-Feb-18 17:20 33.672352 -117.873053 30 49ft 0kts
16-Feb-18 17:21 33.672352 -117.873053 30 49ft 0kts
16-Feb-18 17:22 33.672353 -117.873053 30 49ft 0kts
16-Feb-18 17:23 33.672353 -117.873053 30 49ft 0kts
16-Feb-18 17:24 33.672353 -117.873053 30 49ft 0kts
16-Feb-18 17:25 33.672353 -117.873053 30 49ft 0kts
16-Feb-18 17:26 33.672353 -117.873053 30 49ft 0kts
16-Feb-18 17:27 33.672353 -117.873053 30 49ft 0kts
16-Feb-18 17:28 33.672353 -117.873053 30 49ft 0kts
16-Feb-18 17:29 33.672353 -117.873053 30 49ft 0kts
16-Feb-18 17:30 33.672353 -117.873053 30 49ft 0kts
16-Feb-18 17:31 33.672887 -117.872131 31 49ft 11kts
16-Feb-18 17:32 33.676325 -117.869926 27 49ft 14kts
16-Feb-18 17:33 33.680136 -117.867696 27 49ft 13kts
16-Feb-18 17:34 33.681241 -117.866784 78 49ft 0kts
16-Feb-18 17:35 33.681185 -117.866378 115 49ft 0kts
16-Feb-18 17:36 33.681185 -117.866378 115 49ft 0kts
16-Feb-18 17:37 33.681185 -117.866378 115 49ft 0kts
16-Feb-18 17:38 33.681185 -117.866378 115 49ft 0kts
16-Feb-18 17:39 33.681185 -117.866378 115 49ft 0kts
16-Feb-18 17:40 33.681185 -117.866378 115 49ft 0kts
16-Feb-18 17:41 33.681185 -117.866378 115 49ft 0kts
16-Feb-18 17:42 33.681185 -117.866378 115 49ft 0kts
16-Feb-18 17:43 33.681185 -117.866378 115 49ft 0kts
16-Feb-18 17:44 33.680662 -117.865686 205 49ft 0kts
16-Feb-18 17:45 33.680662 -117.865686 205 49ft 0kts
16-Feb-18 17:46 33.680662 -117.865686 205 49ft 0kts
16-Feb-18 17:47 33.679021 -117.866713 208 49ft 53kts
16-Feb-18 17:48 33.659811 -117.879268 233 697ft 84kts
16-Feb-18 17:49 33.643560 -117.900775 230 1431ft 88kts
16-Feb-18 17:50 33.627969 -117.925555 238 2173ft 103kts
16-Feb-18 17:51 33.612004 -117.954304 270 3057ft 104kts
16-Feb-18 17:52 33.636975 -117.963584 1 3989ft 112kts
16-Feb-18 17:53 33.667705 -117.960122 2 4917ft 111kts
16-Feb-18 17:54 33.698437 -117.958095 359 5850ft 111kts
16-Feb-18 17:55 33.729103 -117.956934 358 6778ft 110kts
16-Feb-18 17:56 33.761380 -117.956373 359 7067ft 143kts
16-Feb-18 17:57 33.799795 -117.956081 359 7804ft 135kts
16-Feb-18 17:58 33.840069 -117.956240 359 7999ft 157kts
16-Feb-18 17:59 33.872405 -117.933660 88 8004ft 166kts
16-Feb-18 18:00 33.864373 -117.883638 98 8519ft 134kts
16-Feb-18 18:01 33.858237 -117.842460 94 8999ft 130kts
16-Feb-18 18:02 33.855746 -117.797780 81 8998ft 132kts
16-Feb-18 18:03 33.861974 -117.756052 72 9001ft 123kts
16-Feb-18 18:04 33.870938 -117.716806 70 9006ft 125kts
16-Feb-18 18:05 33.881375 -117.674804 70 9006ft 134kts
16-Feb-18 18:06 33.892182 -117.632198 71 9006ft 136kts
16-Feb-18 18:07 33.903197 -117.588964 71 9006ft 133kts
16-Feb-18 18:08 33.913774 -117.547487 70 9007ft 126kts
16-Feb-18 18:09 33.936552 -117.519880 27 9004ft 121kts
16-Feb-18 18:10 33.966434 -117.501314 26 8998ft 120kts
16-Feb-18 18:11 33.996794 -117.482929 25 8988ft 124kts
16-Feb-18 18:12 34.027690 -117.464381 25 8993ft 125kts
16-Feb-18 18:13 34.059154 -117.445529 25 8972ft 127kts
16-Feb-18 18:14 34.090835 -117.426491 25 8951ft 127kts
16-Feb-18 18:15 34.122149 -117.407660 25 8944ft 129kts
16-Feb-18 18:16 34.153711 -117.388651 25 8998ft 128kts
16-Feb-18 18:17 34.186059 -117.369139 26 8996ft 130kts
16-Feb-18 18:18 34.217920 -117.349914 26 8999ft 127kts
16-Feb-18 18:19 34.249107 -117.331090 26 9006ft 125kts
16-Feb-18 18:20 34.280251 -117.312265 26 9020ft 124kts
16-Feb-18 18:21 34.311023 -117.293660 26 9049ft 127kts
16-Feb-18 18:22 34.343981 -117.273779 26 9639ft 139kts
16-Feb-18 18:23 34.379848 -117.252050 26 10128ft 149kts
16-Feb-18 18:24 34.417651 -117.229115 26 10632ft 153kts
16-Feb-18 18:25 34.455790 -117.205909 26 11082ft 158kts
16-Feb-18 18:26 34.497004 -117.180772 26 11022ft 172kts
16-Feb-18 18:27 34.539987 -117.154650 26 11010ft 173kts
16-Feb-18 18:28 34.564329 -117.105548 64 11035ft 174kts
16-Feb-18 18:29 34.584157 -117.051748 64 11034ft 175kts
16-Feb-18 18:30 34.603780 -116.997982 64 11032ft 176kts
16-Feb-18 18:31 34.623576 -116.943591 63 11029ft 176kts
16-Feb-18 18:32 34.643305 -116.889289 63 11027ft 176kts
16-Feb-18 18:33 34.662249 -116.837064 63 11027ft 176kts
16-Feb-18 18:34 34.681982 -116.782563 63 11027ft 176kts
16-Feb-18 18:35 34.701640 -116.728178 63 11026ft 176kts
16-Feb-18 18:36 34.721291 -116.673717 63 11026ft 176kts
16-Feb-18 18:37 34.737609 -116.628421 63 11026ft 176kts
16-Feb-18 18:38 34.760517 -116.564725 63 11026ft 176kts
16-Feb-18 18:39 34.776821 -116.519313 63 11026ft 176kts
16-Feb-18 18:40 34.796321 -116.465173 59 11025ft 175kts
16-Feb-18 18:41 34.828730 -116.421615 45 11026ft 173kts
16-Feb-18 18:42 34.861659 -116.378607 44 11028ft 173kts
16-Feb-18 18:43 34.894045 -116.336256 45 11035ft 173kts
16-Feb-18 18:44 34.926573 -116.293667 44 11039ft 173kts
16-Feb-18 18:45 34.959206 -116.250908 44 11038ft 171kts
16-Feb-18 18:46 34.991507 -116.208521 43 11036ft 170kts
16-Feb-18 18:47 35.024107 -116.165647 41 11031ft 176kts
16-Feb-18 18:48 35.058018 -116.121106 41 11025ft 181kts
16-Feb-18 18:49 35.092506 -116.075683 41 11024ft 183kts
16-Feb-18 18:50 35.126171 -116.031274 41 11029ft 184kts
16-Feb-18 18:51 35.160962 -115.985322 41 11028ft 184kts
16-Feb-18 18:52 35.195756 -115.939305 41 11028ft 184kts
16-Feb-18 18:53 35.230543 -115.893361 43 11029ft 181kts
16-Feb-18 18:54 35.264019 -115.848833 42 11030ft 176kts
16-Feb-18 18:55 35.297286 -115.804665 42 11032ft 176kts
16-Feb-18 18:56 35.330405 -115.760639 42 11034ft 176kts
16-Feb-18 18:57 35.363497 -115.716588 42 11035ft 177kts
16-Feb-18 18:58 35.396819 -115.672172 42 11037ft 178kts
16-Feb-18 18:59 35.430157 -115.627678 42 11037ft 178kts
16-Feb-18 19:00 35.463619 -115.582954 42 11037ft 178kts
16-Feb-18 19:01 35.497076 -115.538179 42 11037ft 178kts
16-Feb-18 19:02 35.530645 -115.493167 42 10897ft 185kts
16-Feb-18 19:03 35.567076 -115.444220 43 10238ft 204kts
16-Feb-18 19:04 35.605477 -115.392606 43 9692ft 210kts
16-Feb-18 19:05 35.644199 -115.340445 44 9018ft 188kts
16-Feb-18 19:06 35.675752 -115.297965 43 8260ft 169kts
16-Feb-18 19:07 35.707094 -115.261097 17 7045ft 156kts
16-Feb-18 19:08 35.747886 -115.239864 19 6034ft 161kts
16-Feb-18 19:09 35.789834 -115.220214 19 6017ft 161kts
16-Feb-18 19:10 35.831468 -115.200249 23 5684ft 163kts
16-Feb-18 19:11 35.871587 -115.175132 30 5022ft 167kts
16-Feb-18 19:12 35.910692 -115.146218 30 3811ft 151kts
16-Feb-18 19:13 35.940699 -115.135839 0 2878ft 74kts
16-Feb-18 19:14 35.960926 -115.135606 359 2529ft 75kts
16-Feb-18 19:15 35.970890 -115.136350 272 2447ft 6kts
16-Feb-18 19:16 35.970937 -115.138949 272 2447ft 12kts
16-Feb-18 19:17 35.970460 -115.139307 83 2447ft 0kts

Navigation Log

Ident Type
Flight plan parsing failed, navigation log unavailable